Transatlantic — WDC2769 — position and weather

sailwx.info

Track history (hours):
 
Tides and Currents Weather Stations Pressure Air Temp Water Temp Dewpoint Dewpoint Depression Visibility Wind Speed Wind Dir Waves Ship Positions

Transatlantic

Owner: TRANSATLANTIC LINES SHIP HOLDINGS II INC, Greenwich, CT. More information available from US FCC via Universal Licensing System and Coast Guard Vessel Documentation Center.

Last reported at 2016-Feb-02 10:14 UTC. Time now 2016-Feb-07 05:51 UTC.
Position N 01°11' E 103°40'.

Length 101 m; draft 4.5 m.

Type: Cargo ship. MMSI: 366997520.

Date/timePositionNaut miles runAvg speedWind from/ knotsBaromVisibWave heightAir tempDewpointWater temp
2016-Feb-02 10:14N 01°11' E 103°40'710.2
2016-Feb-02 09:33N 01°10' E 103°47'9 8.6
2016-Feb-02 08:34N 01°15' E 103°54'1 0.8
2016-Feb-02 07:34N 01°15' E 103°53'0 0.0
2016-Feb-02 06:33N 01°15' E 103°53'0 0.0
2016-Feb-02 05:33N 01°15' E 103°53'0 0.0
2016-Feb-02 04:34N 01°15' E 103°53'0 0.1
2016-Feb-02 03:33N 01°15' E 103°53'0 0.0
2016-Feb-02 02:33N 01°15' E 103°53'0 0.1
2016-Feb-02 01:34N 01°15' E 103°53'0 0.0
2016-Feb-02 00:33N 01°15' E 103°53'0 0.0
2016-Feb-01 23:34N 01°15' E 103°53'0 0.1
2016-Feb-01 22:33N 01°15' E 103°53'0 0.1
2016-Feb-01 21:33N 01°15' E 103°53'0 0.0
2016-Feb-01 20:33N 01°15' E 103°53'0 0.0
2016-Feb-01 19:33N 01°15' E 103°53'0 0.0
2016-Feb-01 18:34N 01°15' E 103°53'0 0.0
2016-Feb-01 17:33N 01°15' E 103°53'0 0.0
2016-Feb-01 16:33N 01°15' E 103°53'0 0.0
2016-Feb-01 15:33N 01°15' E 103°53'0 0.0
2016-Feb-01 14:33N 01°15' E 103°53'0 0.0
2016-Feb-01 13:31N 01°15' E 103°53'0 0.0
2016-Feb-01 12:33N 01°15' E 103°53'0 0.0
2016-Feb-01 11:34N 01°15' E 103°53'0 0.1
2016-Feb-01 10:34N 01°15' E 103°53'0 0.1
2016-Feb-01 09:33N 01°15' E 103°53'1 0.9
2016-Feb-01 08:32N 01°15' E 103°52'2 2.3
2016-Feb-01 07:33N 01°16' E 103°50'0 0.1
2016-Feb-01 06:33N 01°16' E 103°50'0 0.1
2016-Feb-01 05:33N 01°16' E 103°50'0 0.0
2016-Feb-01 04:33N 01°16' E 103°50'0 0.0
2016-Feb-01 03:33N 01°16' E 103°50'0 0.0
2016-Feb-01 02:34N 01°16' E 103°50'0 0.0
2016-Feb-01 01:33N 01°16' E 103°50'0 0.0
2016-Feb-01 00:33N 01°16' E 103°50'0 0.0
2016-Jan-31 23:34N 01°16' E 103°50'0 0.0
2016-Jan-31 22:33N 01°16' E 103°50'3 2.6
2016-Jan-31 21:34N 01°15' E 103°52'2 2.2
2016-Jan-31 20:33N 01°13' E 103°54'8 7.8
2016-Jan-31 19:33N 01°09' E 103°47'1010.0
2016-Jan-31 18:33N 01°02' E 103°40'  
Track history (hours):
 
Tides and Currents Weather Stations Pressure Air Temp Water Temp Dewpoint Dewpoint Depression Visibility Wind Speed Wind Dir Waves Ship Positions

Transatlantic

Owner: TRANSATLANTIC LINES SHIP HOLDINGS II INC, Greenwich, CT. More information available from US FCC via Universal Licensing System and Coast Guard Vessel Documentation Center.

Last reported at 2016-Feb-02 10:14 UTC. Time now 2016-Feb-07 05:51 UTC.
Position N 01°11' E 103°40'.

Length 101 m; draft 4.5 m.

Type: Cargo ship. MMSI: 366997520.

Date/timePositionNaut miles runAvg speedWind from/ knotsBaromVisibWave heightAir tempDewpointWater temp
2016-Feb-02 10:14N 01°11' E 103°40'710.2
2016-Feb-02 09:33N 01°10' E 103°47'9 8.6
2016-Feb-02 08:34N 01°15' E 103°54'1 0.8
2016-Feb-02 07:34N 01°15' E 103°53'0 0.0
2016-Feb-02 06:33N 01°15' E 103°53'0 0.0
2016-Feb-02 05:33N 01°15' E 103°53'0 0.0
2016-Feb-02 04:34N 01°15' E 103°53'0 0.1
2016-Feb-02 03:33N 01°15' E 103°53'0 0.0
2016-Feb-02 02:33N 01°15' E 103°53'0 0.1
2016-Feb-02 01:34N 01°15' E 103°53'0 0.0
2016-Feb-02 00:33N 01°15' E 103°53'0 0.0
2016-Feb-01 23:34N 01°15' E 103°53'0 0.1
2016-Feb-01 22:33N 01°15' E 103°53'0 0.1
2016-Feb-01 21:33N 01°15' E 103°53'0 0.0
2016-Feb-01 20:33N 01°15' E 103°53'0 0.0
2016-Feb-01 19:33N 01°15' E 103°53'0 0.0
2016-Feb-01 18:34N 01°15' E 103°53'0 0.0
2016-Feb-01 17:33N 01°15' E 103°53'0 0.0
2016-Feb-01 16:33N 01°15' E 103°53'0 0.0
2016-Feb-01 15:33N 01°15' E 103°53'0 0.0
2016-Feb-01 14:33N 01°15' E 103°53'0 0.0
2016-Feb-01 13:31N 01°15' E 103°53'0 0.0
2016-Feb-01 12:33N 01°15' E 103°53'0 0.0
2016-Feb-01 11:34N 01°15' E 103°53'0 0.1
2016-Feb-01 10:34N 01°15' E 103°53'0 0.1
2016-Feb-01 09:33N 01°15' E 103°53'1 0.9
2016-Feb-01 08:32N 01°15' E 103°52'2 2.3
2016-Feb-01 07:33N 01°16' E 103°50'0 0.1
2016-Feb-01 06:33N 01°16' E 103°50'0 0.1
2016-Feb-01 05:33N 01°16' E 103°50'0 0.0
2016-Feb-01 04:33N 01°16' E 103°50'0 0.0
2016-Feb-01 03:33N 01°16' E 103°50'0 0.0
2016-Feb-01 02:34N 01°16' E 103°50'0 0.0
2016-Feb-01 01:33N 01°16' E 103°50'0 0.0
2016-Feb-01 00:33N 01°16' E 103°50'0 0.0
2016-Jan-31 23:34N 01°16' E 103°50'0 0.0
2016-Jan-31 22:33N 01°16' E 103°50'3 2.6
2016-Jan-31 21:34N 01°15' E 103°52'2 2.2
2016-Jan-31 20:33N 01°13' E 103°54'8 7.8
2016-Jan-31 19:33N 01°09' E 103°47'1010.0
2016-Jan-31 18:33N 01°02' E 103°40'  

Dump ship's entire track history